createdAt,value
2023-01-20T00:01:22.551Z,0.7
2023-01-20T00:06:22.533Z,0.7
2023-01-20T00:11:22.528Z,0.7
2023-01-20T00:16:22.505Z,0.7
2023-01-20T00:21:22.563Z,0.7
2023-01-20T00:26:22.477Z,0.7
2023-01-20T00:31:22.451Z,0.7
2023-01-20T00:36:22.502Z,0.7
2023-01-20T00:41:22.426Z,0.6
2023-01-20T00:46:22.402Z,0.6
2023-01-20T00:51:22.535Z,0.6
2023-01-20T00:56:22.391Z,0.6
2023-01-20T01:01:22.356Z,0.5
2023-01-20T01:06:22.339Z,0.5
2023-01-20T01:11:22.322Z,0.5
2023-01-20T01:16:22.309Z,0.5
2023-01-20T01:21:22.296Z,0.6
2023-01-20T01:26:22.269Z,0.6
2023-01-20T01:31:22.277Z,0.6
2023-01-20T01:36:22.333Z,0.6
2023-01-20T01:41:22.233Z,0.6
2023-01-20T01:46:22.227Z,0.6
2023-01-20T01:51:22.196Z,0.6
2023-01-20T01:56:22.186Z,0.5
2023-01-20T02:01:22.164Z,0.5
2023-01-20T02:06:22.142Z,0.5
2023-01-20T02:11:22.138Z,0.5
2023-01-20T02:16:22.116Z,0.5
2023-01-20T02:21:22.102Z,0.5
2023-01-20T02:26:22.101Z,0.4
2023-01-20T02:31:22.073Z,0.4
2023-01-20T02:36:22.118Z,0.4
2023-01-20T02:41:22.177Z,0.4
2023-01-20T02:46:22.034Z,0.4
2023-01-20T02:51:22.011Z,0.3
2023-01-20T02:56:21.985Z,0.3
2023-01-20T03:01:21.963Z,0.3
2023-01-20T03:06:21.955Z,0.3
2023-01-20T03:11:21.954Z,0.3
2023-01-20T03:16:21.936Z,0.3
2023-01-20T03:21:21.911Z,0.3
2023-01-20T03:26:21.894Z,0.3
2023-01-20T03:31:21.870Z,0.3
2023-01-20T03:36:21.856Z,0.3
2023-01-20T03:41:21.841Z,0.2
2023-01-20T03:46:21.823Z,0.3
2023-01-20T03:51:21.832Z,0.2
2023-01-20T03:56:21.794Z,0.1
2023-01-20T04:01:21.911Z,0
2023-01-20T04:06:21.759Z,-0.2
2023-01-20T04:11:21.745Z,-0.4
2023-01-20T04:16:21.734Z,-0.5
2023-01-20T04:21:21.709Z,-0.6
2023-01-20T04:26:21.697Z,-0.8
2023-01-20T04:31:21.679Z,-0.9
2023-01-20T04:36:21.670Z,-1
2023-01-20T04:41:21.647Z,-1.1
2023-01-20T04:46:21.743Z,-1.2
2023-01-20T04:51:21.623Z,-1.4
2023-01-20T04:56:21.608Z,-1.4
2023-01-20T05:01:21.584Z,-1.5
2023-01-20T05:06:21.579Z,-1.5
2023-01-20T05:11:21.551Z,-1.6
2023-01-20T05:16:21.552Z,-1.6
2023-01-20T05:21:21.692Z,-1.5
2023-01-20T05:26:21.509Z,-1.5
2023-01-20T05:31:21.489Z,-1.5
2023-01-20T05:36:21.651Z,-1.5
2023-01-20T05:41:21.481Z,-1.5
2023-01-20T05:46:21.455Z,-1.4
2023-01-20T05:51:21.437Z,-1.4
2023-01-20T05:56:21.423Z,-1.3
2023-01-20T06:01:21.413Z,-1.4
2023-01-20T06:06:21.386Z,-1.4
2023-01-20T06:11:21.385Z,-1.3
2023-01-20T06:16:21.362Z,-1.3
2023-01-20T06:21:21.346Z,-1.3
2023-01-20T06:26:21.323Z,-1.3
2023-01-20T06:31:21.316Z,-1.4
2023-01-20T06:36:21.306Z,-1.4
2023-01-20T06:41:21.275Z,-1.4
2023-01-20T06:46:21.273Z,-1.4
2023-01-20T06:51:21.291Z,-1.4
2023-01-20T06:56:21.237Z,-1.4
2023-01-20T07:01:21.225Z,-1.4
2023-01-20T07:06:21.225Z,-1.3
2023-01-20T07:11:21.187Z,-1.4
2023-01-20T07:16:21.181Z,-1.4
2023-01-20T07:21:21.175Z,-1.3
2023-01-20T07:26:21.144Z,-1.4
2023-01-20T07:31:21.131Z,-1.4
2023-01-20T07:36:21.155Z,-1.3
2023-01-20T07:41:21.109Z,-1.3
2023-01-20T07:46:21.088Z,-1.3
2023-01-20T07:51:21.076Z,-1.3
2023-01-20T07:56:21.056Z,-1.2
2023-01-20T08:01:21.038Z,-1.2
2023-01-20T08:06:21.086Z,-1.2
2023-01-20T08:11:21.077Z,-1.2
2023-01-20T08:16:20.990Z,-1.1
2023-01-20T08:21:20.976Z,-1
2023-01-20T08:26:20.983Z,-0.9
2023-01-20T08:31:20.946Z,-0.9
2023-01-20T08:36:20.930Z,-0.8
2023-01-20T08:41:20.954Z,-0.6
2023-01-20T08:46:20.909Z,-0.4
2023-01-20T08:51:20.881Z,-0.2
2023-01-20T08:56:20.865Z,0
2023-01-20T09:01:20.847Z,0
2023-01-20T09:06:20.831Z,0.1
2023-01-20T09:11:20.840Z,0.1
2023-01-20T09:16:20.809Z,0.2
2023-01-20T09:21:20.790Z,0.2
2023-01-20T09:26:20.789Z,0.3
2023-01-20T09:31:20.827Z,0.4
2023-01-20T09:36:20.730Z,0.4
2023-01-20T09:41:20.724Z,0.5
2023-01-20T09:46:20.701Z,0.5
2023-01-20T09:51:20.690Z,0.7
2023-01-20T09:56:20.679Z,0.7
2023-01-20T10:01:20.653Z,0.8
2023-01-20T10:06:20.648Z,1
2023-01-20T10:11:20.655Z,1.2
2023-01-20T10:16:20.610Z,1.2
2023-01-20T10:21:20.676Z,1.1
2023-01-20T10:26:20.576Z,1.1
2023-01-20T10:31:20.558Z,1.2
2023-01-20T10:36:20.545Z,1.4
2023-01-20T10:41:20.524Z,1.5
2023-01-20T10:46:20.516Z,1.5
2023-01-20T10:51:20.483Z,1.7
2023-01-20T10:56:20.475Z,1.7
2023-01-20T11:01:20.455Z,1.8
2023-01-20T11:06:20.444Z,2.6
2023-01-20T11:11:20.434Z,3.6
2023-01-20T11:16:20.472Z,4.3
2023-01-20T11:21:20.388Z,4.9
2023-01-20T11:26:20.371Z,5.2
2023-01-20T11:31:20.344Z,5.5
2023-01-20T11:36:20.326Z,5.8
2023-01-20T11:41:20.310Z,5.7
2023-01-20T11:46:20.292Z,5.1
2023-01-20T11:51:20.278Z,4.5
2023-01-20T11:56:20.252Z,4.3
2023-01-20T12:01:20.237Z,4.1
2023-01-20T12:06:20.223Z,4.2
2023-01-20T12:11:20.220Z,4.2
2023-01-20T12:16:20.195Z,4.3
2023-01-20T12:21:20.184Z,4.3
2023-01-20T12:26:20.151Z,4.3
2023-01-20T12:31:20.132Z,4.2
2023-01-20T12:36:20.108Z,4.1
2023-01-20T12:41:20.140Z,4.2
2023-01-20T12:46:20.108Z,4.2
2023-01-20T12:51:20.058Z,4.1
2023-01-20T12:56:20.043Z,4.1
2023-01-20T13:01:20.038Z,4.2
2023-01-20T13:06:19.998Z,4.1
2023-01-20T13:11:20.049Z,4
2023-01-20T13:16:19.968Z,4.1
2023-01-20T13:21:19.959Z,3.9
2023-01-20T13:26:19.933Z,3.9
2023-01-20T13:31:19.917Z,3.9
2023-01-20T13:36:19.903Z,3.7
2023-01-20T13:41:19.914Z,3.7
2023-01-20T13:46:19.880Z,3.5
2023-01-20T13:51:19.845Z,3.3
2023-01-20T13:56:19.834Z,3.1
2023-01-20T14:01:19.815Z,3
2023-01-20T14:06:19.798Z,2.8
2023-01-20T14:11:19.795Z,2.7
2023-01-20T14:16:19.769Z,2.6
2023-01-20T14:21:19.758Z,2.6
2023-01-20T14:26:19.969Z,2.7
2023-01-20T14:31:19.709Z,2.7
2023-01-20T14:36:19.690Z,2.7
2023-01-20T14:41:19.678Z,2.8
2023-01-20T14:46:19.674Z,2.7
2023-01-20T14:51:19.649Z,2.7
2023-01-20T14:56:19.624Z,2.7
2023-01-20T15:01:19.602Z,2.7
2023-01-20T15:06:19.590Z,2.7
2023-01-20T15:11:19.588Z,2.7
2023-01-20T15:16:19.552Z,2.7
2023-01-20T15:21:19.577Z,2.7
2023-01-20T15:26:19.519Z,2.6
2023-01-20T15:31:19.510Z,2.6
2023-01-20T15:36:19.485Z,2.6
2023-01-20T15:41:19.471Z,2.6
2023-01-20T15:46:19.458Z,2.5
2023-01-20T15:51:19.450Z,2.3
2023-01-20T15:56:19.527Z,2.2
2023-01-20T16:01:19.403Z,2.1
2023-01-20T16:06:19.380Z,2
2023-01-20T16:11:19.369Z,2
2023-01-20T16:16:19.357Z,1.9
2023-01-20T16:21:19.343Z,1.8
2023-01-20T16:26:19.320Z,1.8
2023-01-20T16:31:19.299Z,1.7
2023-01-20T16:36:19.285Z,1.5
2023-01-20T16:41:19.266Z,1.4
2023-01-20T16:46:19.249Z,1.3
2023-01-20T16:51:19.236Z,1.2
2023-01-20T16:56:19.230Z,1
2023-01-20T17:01:19.209Z,1
2023-01-20T17:06:19.185Z,0.9
2023-01-20T17:11:19.185Z,0.8
2023-01-20T17:16:19.152Z,0.8
2023-01-20T17:21:19.146Z,0.7
2023-01-20T17:26:19.138Z,0.7
2023-01-20T17:31:19.193Z,0.6
2023-01-20T17:36:19.084Z,0.6
2023-01-20T17:41:19.149Z,0.7
2023-01-20T17:46:19.072Z,0.8
2023-01-20T17:51:19.086Z,0.8
2023-01-20T17:56:19.021Z,0.9
2023-01-20T18:01:19.003Z,0.9
2023-01-20T18:06:18.981Z,0.9
2023-01-20T18:11:18.963Z,0.9
2023-01-20T18:16:18.952Z,0.9
2023-01-20T18:21:18.941Z,0.9
2023-01-20T18:26:18.930Z,0.9
2023-01-20T18:31:18.901Z,0.9
2023-01-20T18:36:18.906Z,0.9
2023-01-20T18:41:19.004Z,0.8
2023-01-20T18:46:18.855Z,0.8
2023-01-20T18:51:18.849Z,0.8
2023-01-20T18:56:18.815Z,0.8
2023-01-20T19:01:18.864Z,0.8
2023-01-20T19:06:18.798Z,0.8
2023-01-20T19:11:18.827Z,0.9
2023-01-20T19:16:18.768Z,0.9
2023-01-20T19:21:18.750Z,0.9
2023-01-20T19:26:18.723Z,0.9
2023-01-20T19:31:18.706Z,0.9
2023-01-20T19:36:18.696Z,0.9
2023-01-20T19:41:18.754Z,0.8
2023-01-20T19:46:18.661Z,0.8
2023-01-20T19:51:18.648Z,0.8
2023-01-20T19:56:18.641Z,0.8
2023-01-20T20:01:18.607Z,0.8
2023-01-20T20:06:18.607Z,0.8
2023-01-20T20:11:18.604Z,0.8
2023-01-20T20:16:18.559Z,0.8
2023-01-20T20:21:18.546Z,0.8
2023-01-20T20:26:18.587Z,0.7
2023-01-20T20:31:18.515Z,0.7
2023-01-20T20:36:18.500Z,0.6
2023-01-20T20:41:18.505Z,0.6
2023-01-20T20:46:18.461Z,0.5
2023-01-20T20:51:18.494Z,0.5
2023-01-20T20:56:18.443Z,0.5
2023-01-20T21:01:18.418Z,0.5
2023-01-20T21:06:18.397Z,0.4
2023-01-20T21:11:18.379Z,0.4
2023-01-20T21:16:18.367Z,0.4
2023-01-20T21:21:18.357Z,0.4
2023-01-20T21:26:18.334Z,0.4
2023-01-20T21:31:18.323Z,0.4
2023-01-20T21:36:18.300Z,0.4
2023-01-20T21:41:18.305Z,0.4
2023-01-20T21:46:18.272Z,0.4
2023-01-20T21:51:18.247Z,0.4
2023-01-20T21:56:18.261Z,0.4
2023-01-20T22:01:18.259Z,0.4
2023-01-20T22:06:18.225Z,0.3
2023-01-20T22:11:18.181Z,0.3
2023-01-20T22:16:18.176Z,0.3
2023-01-20T22:21:18.155Z,0.3
2023-01-20T22:26:18.146Z,0.3
2023-01-20T22:31:18.137Z,0.2
2023-01-20T22:36:18.108Z,0.2
2023-01-20T22:41:18.104Z,0.1
2023-01-20T22:46:18.079Z,0.1
2023-01-20T22:51:18.067Z,0.1
2023-01-20T22:56:18.084Z,0.1
2023-01-20T23:01:18.025Z,0
2023-01-20T23:06:18.018Z,-0.1
2023-01-20T23:11:18.035Z,-0.1
2023-01-20T23:16:17.976Z,-0.1
2023-01-20T23:21:17.986Z,-0.1
2023-01-20T23:26:17.950Z,-0.2
2023-01-20T23:31:17.933Z,-0.2
2023-01-20T23:36:17.917Z,-0.2
2023-01-20T23:41:17.965Z,-0.3
2023-01-20T23:46:17.944Z,-0.3
2023-01-20T23:51:17.874Z,-0.4
2023-01-20T23:56:17.856Z,-0.4
